Weather History for KPHN - October, 2011

Change the Weather History Date:

Friday, October 7, 2011

  Actual Average (KMTC) Record (KMTC)
Temperature  
Mean Temperature 60 °F -  
Max Temperature 77 °F 61 °F 89 °F (1963)
Min Temperature 44 °F 44 °F 29 °F (1964)
Degree Days  
Heating Degree Days 4    
Growing Degree Days 10 (Base 50)    
Moisture  
Dew Point 51 °F    
Average Humidity 78    
Maximum Humidity 100    
Minimum Humidity 41    
Precipitation  
Precipitation 0.00 in - - ()
Sea Level Pressure  
Sea Level Pressure 30.38 in    
Wind  
Wind Speed 1 mph (South)    
Max Wind Speed 8 mph    
Max Gust Speed -    
Visibility 6 miles    
Events Fog    
Averages and records for this station are not official NWS values.
T = Trace of Precipitation, MM = Missing Value Source: NWS Daily Summary

Daily Weather History Graph

Daily Weather History Graph

Search for Another Location

Airport or City:

Trip Planner

Search our weather history database for the weather conditions in past years. The results will help you decide how hot, cold, wet, or windy it might be!

Date:

Astronomy

Oct. 07, 2011 Rise Set
Actual Time 7:33 AM EDT 7:01 PM EDT
Civil Twilight 7:05 AM EDT 7:29 PM EDT
Nautical Twilight 6:32 AM EDT 8:02 PM EDT
Astronomical Twilight 5:59 AM EDT 8:35 PM EDT
Moon 4:48 PM EDT (10/7) 3:15 AM EDT (10/7)
Length of Visible Light 12h 24m
Length of Day
11h 27m
Waxing Gibbous, 83% of the Moon is Illuminated
Oct 7
Waxing Gibbous
Oct 11
Full
Oct 19
Last Quarter
Oct 26
New
Nov 2
First Quarter

Hourly Weather History & Observations

Time (EDT) Temp. Dew Point Humidity Pressure Visibility Wind Dir Wind Speed Gust Speed Precip Events Conditions
12:17 AM 50.0 °F 50.0 °F 100% 30.34 in 1.0 mi Calm Calm - N/A   Mist
12:37 AM 50.0 °F 50.0 °F 100% 30.34 in 0.2 mi Calm Calm - N/A Fog Fog
12:57 AM 50.0 °F 50.0 °F 100% 30.34 in 0.2 mi Calm Calm - N/A Fog Fog
1:18 AM 48.2 °F 48.2 °F 100% 30.34 in 0.2 mi Calm Calm - N/A Fog Fog
1:37 AM 48.2 °F 48.2 °F 100% 30.34 in 0.2 mi Calm Calm - N/A Fog Fog
1:58 AM 48.2 °F 48.2 °F 100% 30.35 in 0.2 mi Calm Calm - N/A Fog Fog
2:17 AM 48.2 °F 48.2 °F 100% 30.35 in 0.2 mi Calm Calm - N/A Fog Fog
2:37 AM 46.4 °F 46.4 °F 100% 30.35 in 0.2 mi Calm Calm - N/A Fog Fog
2:57 AM 48.2 °F 48.2 °F 100% 30.35 in 0.2 mi Calm Calm - N/A Fog Fog
3:18 AM 46.4 °F 46.4 °F 100% 30.35 in 0.5 mi Calm Calm - N/A Fog Fog
3:37 AM 46.4 °F 46.4 °F 100% 30.35 in 0.2 mi Calm Calm - N/A Fog Fog
3:57 AM 46.4 °F 46.4 °F 100% 30.35 in 0.5 mi Calm Calm - N/A Fog Fog
4:17 AM 46.4 °F 46.4 °F 100% 30.35 in 0.5 mi Calm Calm - N/A Fog Fog
4:37 AM 46.4 °F 46.4 °F 100% 30.36 in 0.5 mi Calm Calm - N/A Fog Fog
4:57 AM 46.4 °F 46.4 °F 100% 30.36 in 0.5 mi Calm Calm - N/A Fog Fog
5:17 AM 46.4 °F 46.4 °F 100% 30.36 in 0.5 mi Calm Calm - N/A Fog Fog
5:38 AM 44.6 °F 44.6 °F 100% 30.37 in 0.8 mi Calm Calm - N/A   Mist
5:57 AM 44.6 °F 44.6 °F 100% 30.37 in 0.5 mi Calm Calm - N/A Fog Fog
6:17 AM 44.6 °F 44.6 °F 100% 30.37 in 0.5 mi Calm Calm - N/A Fog Fog
6:37 AM 44.6 °F 44.6 °F 100% 30.37 in 0.8 mi Calm Calm - N/A   Mist
6:57 AM 44.6 °F 44.6 °F 100% 30.38 in 1.0 mi Calm Calm - N/A   Mist
7:17 AM 44.6 °F 44.6 °F 100% 30.39 in 1.2 mi Calm Calm - N/A   Scattered Clouds
7:37 AM 44.6 °F 44.6 °F 100% 30.39 in 3.0 mi Calm Calm - N/A   Clear
8:17 AM 46.4 °F 46.4 °F 100% 30.40 in 10.0 mi Calm Calm - N/A   Clear
8:37 AM 48.2 °F 48.2 °F 100% 30.41 in 5.0 mi Calm Calm - N/A   Clear
8:57 AM 50.0 °F 50.0 °F 100% 30.42 in 4.0 mi Calm Calm - N/A   Clear
9:17 AM 51.8 °F 51.8 °F 100% 30.42 in 7.0 mi Calm Calm - N/A   Clear
9:37 AM 55.4 °F 55.4 °F 100% 30.42 in 7.0 mi Calm Calm - N/A   Clear
9:57 AM 59.0 °F 59.0 °F 100% 30.42 in 10.0 mi Calm Calm - N/A   Clear
10:17 AM 60.8 °F 60.8 °F 100% 30.42 in 10.0 mi South 3.5 mph - N/A   Clear
10:37 AM 62.6 °F 59.0 °F 88% 30.42 in 10.0 mi South 3.5 mph - N/A   Clear
10:57 AM 66.2 °F 57.2 °F 73% 30.43 in 10.0 mi South 3.5 mph - N/A   Clear
11:17 AM 68.0 °F 57.2 °F 68% 30.43 in 10.0 mi SSW 3.5 mph - N/A   Clear
11:38 AM 69.8 °F 55.4 °F 60% 30.43 in 10.0 mi South 3.5 mph - N/A   Clear
11:57 AM 69.8 °F 55.4 °F 60% 30.43 in 10.0 mi South 3.5 mph - N/A   Clear
12:17 PM 71.6 °F 53.6 °F 53% 30.42 in 10.0 mi South 3.5 mph - N/A   Unknown
12:37 PM 73.4 °F 53.6 °F 50% 30.42 in 10.0 mi South 4.6 mph - N/A   Unknown
12:57 PM 75.2 °F 53.6 °F 47% 30.42 in 10.0 mi SE 8.1 mph - N/A   Unknown
1:17 PM 75.2 °F 53.6 °F 47% 30.41 in 10.0 mi South 4.6 mph - N/A   Unknown
1:38 PM 77.0 °F 53.6 °F 44% 30.41 in 10.0 mi South 4.6 mph - N/A   Unknown
1:57 PM 77.0 °F 53.6 °F 44% 30.40 in 10.0 mi South 6.9 mph - N/A   Clear
2:17 PM 77.0 °F 53.6 °F 44% 30.39 in 10.0 mi South 6.9 mph - N/A   Clear
2:37 PM 77.0 °F 51.8 °F 41% 30.38 in 10.0 mi SSW 4.6 mph - N/A   Clear
2:57 PM 77.0 °F 51.8 °F 41% 30.37 in 10.0 mi South 4.6 mph - N/A   Clear
3:17 PM 77.0 °F 51.8 °F 41% 30.37 in 10.0 mi SSW 3.5 mph - N/A   Clear
3:38 PM 77.0 °F 51.8 °F 41% 30.36 in 10.0 mi SSW 5.8 mph - N/A   Clear
3:57 PM 77.0 °F 53.6 °F 44% 30.36 in 10.0 mi South 8.1 mph - N/A   Clear
4:17 PM 77.0 °F 51.8 °F 41% 30.36 in 10.0 mi South 6.9 mph - N/A   Clear
4:37 PM 77.0 °F 53.6 °F 44% 30.36 in 10.0 mi South 8.1 mph - N/A   Clear
4:57 PM 77.0 °F 51.8 °F 41% 30.36 in 10.0 mi SSW 5.8 mph - N/A   Clear
5:17 PM 75.2 °F 53.6 °F 47% 30.36 in 10.0 mi SSW 5.8 mph - N/A   Clear
5:38 PM 75.2 °F 53.6 °F 47% 30.36 in 10.0 mi SW 4.6 mph - N/A   Clear
5:57 PM 75.2 °F 55.4 °F 50% 30.36 in 10.0 mi SSW 3.5 mph - N/A   Clear
6:17 PM 71.6 °F 55.4 °F 57% 30.36 in 10.0 mi SW 3.5 mph - N/A   Clear
6:37 PM 69.8 °F 55.4 °F 60% 30.36 in 10.0 mi Calm Calm - N/A   Clear
6:58 PM 64.4 °F 57.2 °F 77% 30.37 in 10.0 mi Calm Calm - N/A   Clear
7:17 PM 60.8 °F 57.2 °F 88% 30.37 in 10.0 mi Calm Calm - N/A   Clear
7:38 PM 60.8 °F 55.4 °F 82% 30.37 in 10.0 mi SSE 3.5 mph - N/A   Clear
7:58 PM 60.8 °F 53.6 °F 77% 30.37 in 10.0 mi SSW 3.5 mph - N/A   Clear
8:17 PM 59.0 °F 53.6 °F 82% 30.38 in 10.0 mi Calm Calm - N/A   Clear
8:37 PM 57.2 °F 53.6 °F 88% 30.38 in 10.0 mi Calm Calm - N/A   Clear
8:57 PM 57.2 °F 53.6 °F 88% 30.39 in 10.0 mi Calm Calm - N/A   Clear
9:17 PM 55.4 °F 53.6 °F 94% 30.39 in 7.0 mi Calm Calm - N/A   Clear
9:37 PM 53.6 °F 53.6 °F 100% 30.39 in 7.0 mi Calm Calm - N/A   Clear
9:58 PM 53.6 °F 51.8 °F 94% 30.39 in 2.0 mi Calm Calm - N/A   Clear
10:17 PM 51.8 °F 51.8 °F 100% 30.39 in 4.0 mi Calm Calm - N/A   Clear
10:37 PM 51.8 °F 50.0 °F 94% 30.39 in 5.0 mi Calm Calm - N/A   Clear
10:57 PM 51.8 °F 50.0 °F 94% 30.39 in 3.0 mi SSE 3.5 mph - N/A   Clear
11:17 PM 53.6 °F 51.8 °F 94% 30.39 in 7.0 mi SSE 3.5 mph - N/A   Clear
11:37 PM 53.6 °F 51.8 °F 94% 30.39 in 7.0 mi SSE 4.6 mph - N/A   Clear
11:58 PM 53.6 °F 51.8 °F 94% 30.38 in 4.0 mi Calm Calm - N/A   Clear